createdAt,value
2018-09-25T00:00:15.982Z,3.99
2018-09-25T00:01:15.880Z,3.94
2018-09-25T00:02:15.874Z,3.95
2018-09-25T00:03:15.880Z,3.95
2018-09-25T00:04:15.854Z,3.94
2018-09-25T00:05:15.836Z,3.87
2018-09-25T00:06:15.864Z,3.81
2018-09-25T00:07:15.817Z,3.91
2018-09-25T00:08:15.843Z,3.81
2018-09-25T00:09:15.798Z,3.91
2018-09-25T00:10:15.829Z,3.92
2018-09-25T00:11:15.768Z,3.84
2018-09-25T00:12:15.801Z,3.91
2018-09-25T00:13:15.755Z,3.88
2018-09-25T00:14:15.789Z,3.74
2018-09-25T00:15:15.727Z,3.78
2018-09-25T00:16:15.723Z,3.76
2018-09-25T00:17:15.707Z,3.78
2018-09-25T00:18:15.773Z,3.78
2018-09-25T00:19:15.687Z,3.74
2018-09-25T00:20:15.829Z,3.65
2018-09-25T00:21:15.663Z,3.68
2018-09-25T00:22:15.655Z,3.66
2018-09-25T00:23:15.655Z,3.60
2018-09-25T00:24:15.662Z,3.69
2018-09-25T00:25:15.629Z,3.58
2018-09-25T00:26:15.621Z,3.62
2018-09-25T00:27:15.634Z,3.62
2018-09-25T00:28:15.628Z,3.53
2018-09-25T00:29:15.583Z,3.53
2018-09-25T00:30:15.609Z,3.48
2018-09-25T00:31:15.561Z,3.55
2018-09-25T00:32:15.552Z,3.47
2018-09-25T00:33:15.573Z,3.50
2018-09-25T00:34:15.546Z,3.41
2018-09-25T00:35:15.569Z,3.45
2018-09-25T00:36:15.617Z,3.42
2018-09-25T00:37:15.497Z,3.48
2018-09-25T00:38:15.489Z,3.32
2018-09-25T00:39:15.498Z,3.44
2018-09-25T00:40:15.491Z,3.44
2018-09-25T00:41:15.484Z,3.47
2018-09-25T00:42:15.488Z,3.47
2018-09-25T00:43:15.433Z,3.44
2018-09-25T00:44:15.467Z,3.48
2018-09-25T00:45:15.417Z,3.41
2018-09-25T00:46:15.406Z,3.31
2018-09-25T00:47:15.399Z,3.41
2018-09-25T00:48:15.432Z,3.42
2018-09-25T00:49:15.399Z,3.36
2018-09-25T00:50:15.415Z,3.44
2018-09-25T00:51:15.356Z,3.31
2018-09-25T00:52:15.348Z,3.42
2018-09-25T00:53:15.342Z,3.42
2018-09-25T00:54:15.363Z,3.34
2018-09-25T00:55:15.310Z,3.25
2018-09-25T00:56:15.348Z,3.28
2018-09-25T00:57:15.288Z,3.26
2018-09-25T00:58:15.286Z,3.31
2018-09-25T00:59:15.274Z,3.19
2018-09-25T01:00:15.300Z,3.32
2018-09-25T01:01:15.256Z,3.21
2018-09-25T01:02:15.245Z,3.28
2018-09-25T01:03:15.236Z,3.25
2018-09-25T01:04:15.223Z,3.23
2018-09-25T01:05:15.224Z,3.26
2018-09-25T01:06:15.244Z,3.14
2018-09-25T01:07:15.188Z,3.25
2018-09-25T01:08:15.170Z,3.16
2018-09-25T01:09:15.187Z,3.11
2018-09-25T01:10:15.154Z,3.16
2018-09-25T01:11:15.196Z,3.10
2018-09-25T01:12:15.163Z,3.14
2018-09-25T01:13:15.120Z,3.11
2018-09-25T01:14:15.114Z,3.01
2018-09-25T01:15:15.113Z,3.07
2018-09-25T01:16:15.090Z,3.04
2018-09-25T01:17:15.142Z,3.07
2018-09-25T01:18:15.113Z,3.08
2018-09-25T01:19:15.119Z,3.08
2018-09-25T01:20:15.048Z,3.08
2018-09-25T01:21:15.048Z,3.04
2018-09-25T01:22:15.032Z,3.05
2018-09-25T01:23:15.029Z,3.07
2018-09-25T01:24:15.060Z,3.05
2018-09-25T01:25:15.034Z,3.05
2018-09-25T01:26:14.993Z,3.07
2018-09-25T01:27:14.982Z,3.11
2018-09-25T01:28:14.968Z,3.10
2018-09-25T01:29:14.957Z,3.04
2018-09-25T01:30:14.981Z,2.93
2018-09-25T01:31:14.985Z,3.03
2018-09-25T01:32:14.936Z,3.00
2018-09-25T01:33:14.921Z,3.11
2018-09-25T01:34:14.907Z,3.03
2018-09-25T01:35:14.891Z,3.01
2018-09-25T01:36:14.912Z,3.00
2018-09-25T01:37:14.903Z,2.97
2018-09-25T01:38:14.860Z,3.03
2018-09-25T01:39:14.849Z,2.97
2018-09-25T01:40:14.849Z,2.95
2018-09-25T01:41:14.828Z,2.93
2018-09-25T01:42:14.863Z,2.92
2018-09-25T01:43:14.867Z,2.92
2018-09-25T01:44:14.800Z,2.86
2018-09-25T01:45:14.790Z,2.92
2018-09-25T01:46:14.780Z,2.82
2018-09-25T01:47:14.766Z,2.87
2018-09-25T01:48:14.791Z,2.83
2018-09-25T01:49:14.780Z,2.83
2018-09-25T01:50:14.739Z,2.77
2018-09-25T01:51:14.725Z,2.80
2018-09-25T01:52:14.722Z,2.77
2018-09-25T01:53:14.704Z,2.77
2018-09-25T01:54:14.734Z,2.72
2018-09-25T01:55:14.731Z,2.79
2018-09-25T01:56:14.676Z,2.83
2018-09-25T01:57:14.662Z,2.79
2018-09-25T01:58:14.660Z,2.86
2018-09-25T01:59:14.645Z,2.80
2018-09-25T02:00:14.692Z,2.80
2018-09-25T02:01:14.628Z,2.82
2018-09-25T02:02:14.634Z,2.83
2018-09-25T02:03:14.610Z,2.83
2018-09-25T02:04:14.600Z,2.82
2018-09-25T02:05:14.587Z,2.85
2018-09-25T02:06:14.604Z,2.83
2018-09-25T02:07:14.566Z,2.86
2018-09-25T02:08:14.605Z,2.83
2018-09-25T02:09:14.544Z,2.80
2018-09-25T02:10:14.536Z,2.85
2018-09-25T02:11:14.564Z,2.83
2018-09-25T02:12:14.547Z,2.74
2018-09-25T02:13:14.499Z,2.82
2018-09-25T02:14:14.510Z,2.77
2018-09-25T02:15:14.510Z,2.68
2018-09-25T02:16:14.504Z,2.69
2018-09-25T02:17:14.466Z,2.71
2018-09-25T02:18:15.091Z,2.69
2018-09-25T02:19:14.434Z,2.64
2018-09-25T02:20:14.433Z,2.68
2018-09-25T02:21:14.425Z,2.60
2018-09-25T02:22:14.429Z,2.62
2018-09-25T02:23:14.455Z,2.64
2018-09-25T02:24:14.420Z,2.60
2018-09-25T02:25:14.373Z,2.54
2018-09-25T02:26:14.364Z,2.60
2018-09-25T02:27:14.364Z,2.61
2018-09-25T02:28:14.358Z,2.53
2018-09-25T02:29:14.391Z,2.54
2018-09-25T02:30:14.351Z,2.51
2018-09-25T02:31:14.311Z,2.49
2018-09-25T02:32:14.311Z,2.49
2018-09-25T02:33:14.290Z,2.49
2018-09-25T02:34:14.280Z,2.51
2018-09-25T02:35:14.274Z,2.44
2018-09-25T02:36:14.464Z,2.44
2018-09-25T02:37:14.267Z,2.61
2018-09-25T02:38:14.255Z,2.54
2018-09-25T02:39:14.234Z,2.62
2018-09-25T02:40:14.260Z,2.60
2018-09-25T02:41:14.209Z,2.62
2018-09-25T02:42:14.229Z,2.64
2018-09-25T02:43:14.208Z,2.61
2018-09-25T02:44:14.175Z,2.57
2018-09-25T02:45:15.079Z,2.62
2018-09-25T02:46:14.154Z,2.53
2018-09-25T02:47:14.145Z,2.57
2018-09-25T02:48:14.224Z,2.56
2018-09-25T02:49:14.127Z,2.60
2018-09-25T02:50:14.112Z,2.50
2018-09-25T02:51:14.106Z,2.44
2018-09-25T02:52:14.105Z,2.47
2018-09-25T02:53:14.092Z,2.39
2018-09-25T02:54:14.130Z,2.49
2018-09-25T02:55:14.061Z,2.42
2018-09-25T02:56:14.059Z,2.39
2018-09-25T02:57:14.049Z,2.33
2018-09-25T02:58:14.034Z,2.31
2018-09-25T02:59:14.028Z,2.29
2018-09-25T03:00:14.057Z,2.29
2018-09-25T03:01:14.005Z,2.29
2018-09-25T03:02:13.990Z,2.26
2018-09-25T03:03:13.985Z,2.28
2018-09-25T03:04:13.970Z,2.31
2018-09-25T03:05:13.959Z,2.31
2018-09-25T03:06:14.027Z,2.32
2018-09-25T03:07:13.955Z,2.32
2018-09-25T03:08:14.079Z,2.31
2018-09-25T03:09:13.969Z,2.28
2018-09-25T03:10:13.929Z,2.29
2018-09-25T03:11:14.003Z,2.29
2018-09-25T03:12:13.951Z,2.26
2018-09-25T03:13:13.904Z,2.35
2018-09-25T03:14:13.907Z,2.32
2018-09-25T03:15:13.883Z,2.29
2018-09-25T03:16:13.841Z,2.26
2018-09-25T03:17:13.839Z,2.29
2018-09-25T03:18:13.863Z,2.31
2018-09-25T03:19:13.882Z,2.36
2018-09-25T03:20:13.804Z,2.29
2018-09-25T03:21:13.797Z,2.31
2018-09-25T03:22:13.786Z,2.28
2018-09-25T03:23:13.770Z,2.28
2018-09-25T03:24:13.795Z,2.38
2018-09-25T03:25:13.788Z,2.29
2018-09-25T03:26:13.766Z,2.38
2018-09-25T03:27:13.746Z,2.28
2018-09-25T03:28:13.720Z,2.32
2018-09-25T03:29:13.709Z,2.33
2018-09-25T03:30:13.740Z,2.32
2018-09-25T03:31:13.690Z,2.46
2018-09-25T03:32:13.724Z,2.42
2018-09-25T03:33:13.667Z,2.28
2018-09-25T03:34:13.666Z,2.33
2018-09-25T03:35:13.644Z,2.42
2018-09-25T03:36:13.670Z,2.36
2018-09-25T03:37:13.623Z,2.28
2018-09-25T03:38:13.613Z,2.43
2018-09-25T03:39:13.613Z,2.36
2018-09-25T03:40:13.607Z,2.50
2018-09-25T03:41:13.604Z,2.46
2018-09-25T03:42:13.607Z,2.47
2018-09-25T03:43:13.559Z,2.42
2018-09-25T03:44:13.564Z,2.39
2018-09-25T03:45:13.546Z,2.43
2018-09-25T03:46:13.563Z,2.42
2018-09-25T03:47:13.550Z,2.43
2018-09-25T03:48:13.551Z,2.49
2018-09-25T03:49:13.501Z,2.47
2018-09-25T03:50:13.509Z,2.49
2018-09-25T03:51:13.666Z,2.50
2018-09-25T03:52:13.469Z,2.46
2018-09-25T03:53:13.466Z,2.50
2018-09-25T03:54:13.482Z,2.46
2018-09-25T03:55:13.478Z,2.42
2018-09-25T03:56:13.426Z,2.32
2018-09-25T03:57:13.418Z,2.43
2018-09-25T03:58:13.419Z,2.38
2018-09-25T03:59:13.400Z,2.26
2018-09-25T04:00:13.458Z,2.32
2018-09-25T04:01:13.774Z,2.29
2018-09-25T04:02:13.364Z,2.32
2018-09-25T04:03:13.353Z,2.25
2018-09-25T04:04:13.354Z,2.20
2018-09-25T04:05:13.434Z,2.15
2018-09-25T04:06:13.631Z,2.20
2018-09-25T04:07:13.310Z,2.15
2018-09-25T04:08:13.322Z,2.18
2018-09-25T04:09:13.300Z,2.13
2018-09-25T04:10:13.289Z,2.14
2018-09-25T04:11:13.308Z,2.17
2018-09-25T04:12:13.433Z,2.15
2018-09-25T04:13:13.272Z,2.18
2018-09-25T04:14:13.291Z,2.18
2018-09-25T04:15:13.324Z,2.29
2018-09-25T04:16:13.230Z,2.25
2018-09-25T04:17:13.250Z,2.29
2018-09-25T04:18:13.240Z,2.29
2018-09-25T04:19:13.212Z,2.35
2018-09-25T04:20:13.251Z,2.36
2018-09-25T04:21:13.173Z,2.39
2018-09-25T04:22:13.160Z,2.43
2018-09-25T04:23:13.172Z,2.38
2018-09-25T04:24:13.204Z,2.38
2018-09-25T04:25:13.125Z,2.33
2018-09-25T04:26:13.140Z,2.38
2018-09-25T04:27:13.118Z,2.32
2018-09-25T04:28:13.143Z,2.31
2018-09-25T04:29:13.089Z,2.35
2018-09-25T04:30:13.108Z,2.32
2018-09-25T04:31:13.097Z,2.28
2018-09-25T04:32:13.077Z,2.42
2018-09-25T04:33:13.047Z,2.28
2018-09-25T04:34:13.047Z,2.38
2018-09-25T04:35:13.058Z,2.38
2018-09-25T04:36:13.047Z,2.42
2018-09-25T04:37:13.044Z,2.39
2018-09-25T04:38:13.009Z,2.33
2018-09-25T04:39:12.980Z,2.32
2018-09-25T04:40:13.015Z,2.29
2018-09-25T04:41:12.977Z,2.28
2018-09-25T04:42:13.006Z,2.28
2018-09-25T04:43:12.942Z,2.26
2018-09-25T04:44:12.937Z,2.22
2018-09-25T04:45:12.939Z,2.28
2018-09-25T04:46:12.912Z,2.28
2018-09-25T04:47:12.904Z,2.38
2018-09-25T04:48:12.949Z,2.38
2018-09-25T04:49:12.875Z,2.44
2018-09-25T04:50:12.871Z,2.43
2018-09-25T04:51:12.861Z,2.46
2018-09-25T04:52:12.860Z,2.49
2018-09-25T04:53:12.829Z,2.43
2018-09-25T04:54:12.850Z,2.39
2018-09-25T04:55:12.856Z,2.33
2018-09-25T04:56:12.819Z,2.39
2018-09-25T04:57:12.807Z,2.33
2018-09-25T04:58:12.788Z,2.29
2018-09-25T04:59:12.768Z,2.35
2018-09-25T05:00:12.788Z,2.35
2018-09-25T05:01:12.752Z,2.39
2018-09-25T05:02:12.737Z,2.42
2018-09-25T05:03:12.733Z,2.46
2018-09-25T05:04:12.766Z,2.42
2018-09-25T05:05:12.719Z,2.46
2018-09-25T05:06:12.750Z,2.46
2018-09-25T05:07:12.697Z,2.46
2018-09-25T05:08:12.674Z,2.49
2018-09-25T05:09:12.664Z,2.57
2018-09-25T05:10:12.662Z,2.61
2018-09-25T05:11:12.680Z,2.57
2018-09-25T05:12:12.708Z,2.60
2018-09-25T05:13:12.640Z,2.54
2018-09-25T05:14:12.633Z,2.56
2018-09-25T05:15:12.603Z,2.60
2018-09-25T05:16:12.589Z,2.72
2018-09-25T05:17:12.599Z,2.61
2018-09-25T05:18:12.656Z,2.60
2018-09-25T05:19:12.560Z,2.57
2018-09-25T05:20:12.555Z,2.51
2018-09-25T05:21:12.541Z,2.53
2018-09-25T05:22:12.534Z,2.61
2018-09-25T05:23:12.541Z,2.46
2018-09-25T05:24:12.555Z,2.53
2018-09-25T05:25:12.505Z,2.51
2018-09-25T05:26:12.494Z,2.50
2018-09-25T05:27:12.483Z,2.39
2018-09-25T05:28:12.479Z,2.43
2018-09-25T05:29:12.458Z,2.46
2018-09-25T05:30:12.518Z,2.47
2018-09-25T05:31:12.448Z,2.57
2018-09-25T05:32:12.442Z,2.60
2018-09-25T05:33:12.411Z,2.61
2018-09-25T05:34:12.412Z,2.57
2018-09-25T05:35:12.392Z,2.64
2018-09-25T05:36:12.418Z,2.60
2018-09-25T05:37:12.432Z,2.57
2018-09-25T05:38:12.412Z,2.57
2018-09-25T05:39:12.362Z,2.57
2018-09-25T05:40:12.342Z,2.56
2018-09-25T05:41:12.333Z,2.57
2018-09-25T05:42:12.369Z,2.57
2018-09-25T05:43:12.318Z,2.49
2018-09-25T05:44:12.375Z,2.50
2018-09-25T05:45:12.301Z,2.50
2018-09-25T05:46:12.291Z,2.54
2018-09-25T05:47:12.266Z,2.54
2018-09-25T05:48:12.299Z,2.57
2018-09-25T05:49:12.243Z,2.61
2018-09-25T05:50:12.241Z,2.61
2018-09-25T05:51:12.292Z,2.56
2018-09-25T05:52:12.233Z,2.61
2018-09-25T05:53:12.211Z,2.56
2018-09-25T05:54:12.225Z,2.68
2018-09-25T05:55:12.194Z,2.72
2018-09-25T05:56:12.175Z,2.69
2018-09-25T05:57:12.170Z,2.67
2018-09-25T05:58:12.154Z,2.69
2018-09-25T05:59:12.168Z,2.75
2018-09-25T06:00:12.172Z,2.82
2018-09-25T06:01:12.137Z,2.82
2018-09-25T06:02:12.110Z,2.83
2018-09-25T06:03:12.097Z,2.86
2018-09-25T06:04:12.097Z,2.92
2018-09-25T06:05:12.094Z,2.93
2018-09-25T06:06:12.143Z,2.95
2018-09-25T06:07:12.074Z,2.89
2018-09-25T06:08:12.050Z,3.00
2018-09-25T06:09:12.074Z,2.95
2018-09-25T06:10:12.025Z,2.93
2018-09-25T06:11:12.026Z,3.11
2018-09-25T06:12:12.102Z,3.07
2018-09-25T06:13:11.998Z,3.14
2018-09-25T06:14:11.988Z,3.11
2018-09-25T06:15:12.987Z,3.14
2018-09-25T06:16:11.985Z,3.21
2018-09-25T06:17:11.959Z,3.18
2018-09-25T06:18:11.982Z,3.22
2018-09-25T06:19:11.973Z,3.31
2018-09-25T06:20:11.924Z,3.40
2018-09-25T06:21:11.923Z,3.34
2018-09-25T06:22:11.913Z,3.40
2018-09-25T06:23:11.894Z,3.34
2018-09-25T06:24:11.919Z,3.36
2018-09-25T06:25:11.917Z,3.34
2018-09-25T06:26:11.867Z,3.44
2018-09-25T06:27:11.857Z,3.51
2018-09-25T06:28:11.841Z,3.51
2018-09-25T06:29:11.829Z,3.58
2018-09-25T06:30:11.860Z,3.55
2018-09-25T06:31:11.861Z,3.66
2018-09-25T06:32:11.800Z,3.68
2018-09-25T06:33:11.814Z,3.73
2018-09-25T06:34:11.780Z,3.65
2018-09-25T06:35:11.773Z,3.80
2018-09-25T06:36:11.797Z,3.87
2018-09-25T06:37:11.790Z,3.94
2018-09-25T06:38:11.748Z,4.05
2018-09-25T06:39:11.729Z,3.96
2018-09-25T06:40:11.721Z,4.13
2018-09-25T06:41:11.702Z,4.16
2018-09-25T06:42:11.722Z,4.17
2018-09-25T06:43:11.761Z,4.06
2018-09-25T06:44:11.670Z,4.10
2018-09-25T06:45:11.660Z,4.23
2018-09-25T06:46:11.651Z,4.17
2018-09-25T06:47:11.704Z,4.31
2018-09-25T06:48:11.665Z,4.28
2018-09-25T06:49:11.673Z,4.26
2018-09-25T06:50:11.610Z,4.35
2018-09-25T06:51:11.601Z,4.35
2018-09-25T06:52:11.592Z,4.38
2018-09-25T06:53:11.588Z,4.45
2018-09-25T06:54:11.605Z,4.49
2018-09-25T06:55:11.599Z,4.44
2018-09-25T06:56:11.583Z,4.50
2018-09-25T06:57:11.539Z,4.60
2018-09-25T06:58:11.529Z,4.50
2018-09-25T06:59:11.511Z,4.60
2018-09-25T07:00:11.541Z,4.63
2018-09-25T07:01:11.511Z,4.58
2018-09-25T07:02:11.540Z,4.67
2018-09-25T07:03:12.050Z,4.75
2018-09-25T07:04:11.461Z,4.66
2018-09-25T07:05:11.454Z,4.63
2018-09-25T07:06:11.477Z,4.55
2018-09-25T07:07:11.429Z,4.70
2018-09-25T07:08:11.425Z,4.63
2018-09-25T07:09:11.665Z,4.67
2018-09-25T07:10:11.595Z,4.80
2018-09-25T07:11:11.394Z,4.86
2018-09-25T07:12:11.438Z,4.90
2018-09-25T07:13:11.367Z,4.96
2018-09-25T07:14:11.368Z,5.00
2018-09-25T07:15:11.353Z,5.05
2018-09-25T07:16:11.391Z,5.00
2018-09-25T07:17:11.330Z,4.93
2018-09-25T07:18:11.357Z,5.02
2018-09-25T07:19:11.302Z,4.97
2018-09-25T07:20:11.299Z,5.02
2018-09-25T07:21:11.342Z,5.05
2018-09-25T07:22:11.282Z,5.08
2018-09-25T07:23:11.265Z,5.12
2018-09-25T07:24:11.288Z,5.10
2018-09-25T07:25:11.297Z,5.23
2018-09-25T07:26:11.228Z,5.30
2018-09-25T07:27:11.232Z,5.30
2018-09-25T07:28:11.218Z,5.46
2018-09-25T07:29:11.203Z,5.54
2018-09-25T07:30:11.223Z,5.65
2018-09-25T07:31:11.221Z,5.66
2018-09-25T07:32:11.169Z,5.72
2018-09-25T07:33:11.176Z,5.73
2018-09-25T07:34:11.176Z,5.84
2018-09-25T07:35:11.136Z,5.83
2018-09-25T07:36:11.169Z,5.83
2018-09-25T07:37:11.115Z,5.94
2018-09-25T07:38:11.108Z,5.91
2018-09-25T07:39:11.090Z,5.87
2018-09-25T07:40:11.144Z,5.98
2018-09-25T07:41:11.071Z,6.01
2018-09-25T07:42:11.095Z,5.97
2018-09-25T07:43:11.057Z,5.98
2018-09-25T07:44:11.045Z,6.07
2018-09-25T07:45:11.031Z,5.99
2018-09-25T07:46:11.087Z,6.07
2018-09-25T07:47:11.011Z,6.07
2018-09-25T07:48:11.105Z,6.12
2018-09-25T07:49:10.994Z,6.07
2018-09-25T07:50:10.975Z,5.98
2018-09-25T07:51:10.984Z,6.02
2018-09-25T07:52:10.974Z,6.07
2018-09-25T07:53:10.956Z,6.09
2018-09-25T07:54:10.963Z,6.12
2018-09-25T07:55:10.936Z,6.08
2018-09-25T07:56:10.931Z,6.16
2018-09-25T07:57:10.903Z,6.22
2018-09-25T07:58:10.990Z,6.22
2018-09-25T07:59:10.889Z,6.24
2018-09-25T08:00:10.914Z,6.28
2018-09-25T08:01:10.863Z,6.30
2018-09-25T08:02:10.856Z,6.33
2018-09-25T08:03:10.856Z,6.39
2018-09-25T08:04:10.852Z,6.41
2018-09-25T08:05:10.872Z,6.45
2018-09-25T08:06:10.843Z,6.45
2018-09-25T08:07:10.806Z,6.54
2018-09-25T08:08:10.789Z,6.51
2018-09-25T08:09:10.833Z,6.52
2018-09-25T08:10:10.765Z,6.52
2018-09-25T08:11:10.771Z,6.56
2018-09-25T08:12:10.773Z,6.56
2018-09-25T08:13:10.736Z,6.56
2018-09-25T08:14:10.731Z,6.51
2018-09-25T08:15:10.717Z,6.51
2018-09-25T08:16:10.726Z,6.66
2018-09-25T08:17:10.694Z,6.63
2018-09-25T08:18:10.717Z,6.70
2018-09-25T08:19:10.680Z,6.81
2018-09-25T08:20:10.737Z,6.82
2018-09-25T08:21:10.671Z,6.78
2018-09-25T08:22:10.644Z,6.84
2018-09-25T08:23:10.632Z,6.77
2018-09-25T08:24:10.656Z,6.84
2018-09-25T08:25:10.613Z,6.97
2018-09-25T08:26:10.619Z,6.95
2018-09-25T08:27:10.586Z,6.99
2018-09-25T08:28:10.589Z,7.10
2018-09-25T08:29:10.571Z,7.11
2018-09-25T08:30:10.587Z,7.21
2018-09-25T08:31:10.558Z,7.18
2018-09-25T08:32:10.535Z,7.11
2018-09-25T08:33:10.582Z,7.23
2018-09-25T08:34:10.517Z,7.13
2018-09-25T08:35:10.508Z,7.25
2018-09-25T08:36:10.528Z,7.23
2018-09-25T08:37:10.486Z,7.31
2018-09-25T08:38:10.500Z,7.29
2018-09-25T08:39:10.556Z,7.42
2018-09-25T08:40:10.453Z,7.40
2018-09-25T08:41:10.449Z,7.43
2018-09-25T08:42:10.467Z,7.42
2018-09-25T08:43:10.417Z,7.43
2018-09-25T08:44:10.409Z,7.51
2018-09-25T08:45:10.428Z,7.57
2018-09-25T08:46:10.384Z,7.60
2018-09-25T08:47:10.379Z,7.67
2018-09-25T08:48:10.398Z,7.72
2018-09-25T08:49:10.352Z,7.75
2018-09-25T08:50:10.340Z,7.82
2018-09-25T08:51:10.387Z,7.93
2018-09-25T08:52:10.323Z,7.94
2018-09-25T08:53:10.345Z,7.91
2018-09-25T08:54:10.355Z,8.06
2018-09-25T08:55:10.300Z,8.05
2018-09-25T08:56:10.281Z,7.98
2018-09-25T08:57:10.297Z,8.01
2018-09-25T08:58:10.269Z,8.03
2018-09-25T08:59:10.249Z,8.15
2018-09-25T09:00:10.270Z,8.16
2018-09-25T09:01:10.311Z,8.18
2018-09-25T09:02:10.220Z,8.30
2018-09-25T09:03:10.215Z,8.30
2018-09-25T09:04:10.251Z,8.48
2018-09-25T09:05:10.184Z,8.58
2018-09-25T09:06:10.209Z,8.60
2018-09-25T09:07:10.168Z,8.64
2018-09-25T09:08:10.164Z,8.67
2018-09-25T09:09:10.181Z,8.78
2018-09-25T09:10:10.129Z,8.82
2018-09-25T09:11:10.128Z,8.84
2018-09-25T09:12:10.143Z,8.85
2018-09-25T09:13:10.094Z,8.92
2018-09-25T09:14:10.085Z,9.06
2018-09-25T09:15:10.091Z,9.06
2018-09-25T09:16:10.078Z,9.13
2018-09-25T09:17:10.057Z,9.11
2018-09-25T09:18:10.079Z,9.19
2018-09-25T09:19:10.047Z,9.18
2018-09-25T09:20:10.094Z,9.21
2018-09-25T09:21:10.063Z,9.25
2018-09-25T09:22:10.007Z,9.37
2018-09-25T09:23:09.989Z,9.46
2018-09-25T09:24:10.007Z,9.32
2018-09-25T09:25:09.994Z,9.37
2018-09-25T09:26:09.958Z,9.48
2018-09-25T09:27:10.009Z,9.58
2018-09-25T09:28:09.935Z,9.61
2018-09-25T09:29:09.921Z,9.65
2018-09-25T09:30:09.946Z,9.65
2018-09-25T09:31:09.902Z,9.82
2018-09-25T09:32:09.901Z,9.77
2018-09-25T09:33:09.903Z,9.79
2018-09-25T09:34:09.877Z,9.82
2018-09-25T09:35:09.860Z,9.94
2018-09-25T09:36:09.892Z,9.89
2018-09-25T09:37:09.851Z,9.94
2018-09-25T09:38:09.835Z,9.95
2018-09-25T09:39:09.859Z,10.02
2018-09-25T09:40:09.818Z,10.02
2018-09-25T09:41:09.891Z,10.09
2018-09-25T09:42:09.818Z,10.05
2018-09-25T09:43:09.779Z,10.17
2018-09-25T09:44:09.776Z,10.17
2018-09-25T09:45:09.782Z,10.23
2018-09-25T09:46:09.777Z,10.30
2018-09-25T09:47:09.733Z,10.26
2018-09-25T09:48:09.768Z,10.33
2018-09-25T09:49:09.713Z,10.31
2018-09-25T09:50:09.702Z,10.35
2018-09-25T09:51:09.701Z,10.34
2018-09-25T09:52:09.680Z,10.51
2018-09-25T09:53:09.739Z,10.49
2018-09-25T09:54:09.727Z,10.48
2018-09-25T09:55:09.654Z,10.53
2018-09-25T09:56:09.639Z,10.59
2018-09-25T09:57:09.656Z,10.64
2018-09-25T09:58:09.618Z,10.74
2018-09-25T09:59:09.605Z,10.64
2018-09-25T10:00:09.632Z,10.69
2018-09-25T10:01:09.615Z,10.67
2018-09-25T10:02:09.575Z,10.74
2018-09-25T10:03:09.570Z,10.74
2018-09-25T10:04:09.558Z,10.75
2018-09-25T10:05:09.550Z,10.86
2018-09-25T10:06:09.574Z,10.84
2018-09-25T10:07:09.528Z,10.86
2018-09-25T10:08:09.522Z,10.84
2018-09-25T10:09:09.669Z,10.81
2018-09-25T10:10:09.541Z,10.87
2018-09-25T10:11:09.486Z,10.86
2018-09-25T10:12:09.498Z,10.87
2018-09-25T10:13:09.498Z,10.96
2018-09-25T10:14:09.443Z,10.99
2018-09-25T10:15:09.446Z,10.87
2018-09-25T10:16:09.478Z,11.02
2018-09-25T10:17:09.411Z,10.96
2018-09-25T10:18:09.433Z,10.92
2018-09-25T10:19:09.394Z,10.93
2018-09-25T10:20:09.383Z,10.92
2018-09-25T10:21:09.424Z,10.99
2018-09-25T10:22:09.362Z,11.04
2018-09-25T10:23:09.348Z,11.00
2018-09-25T10:24:09.370Z,11.10
2018-09-25T10:25:09.340Z,11.04
2018-09-25T10:26:09.317Z,11.10
2018-09-25T10:27:09.342Z,11.07
2018-09-25T10:28:09.299Z,11.08
2018-09-25T10:29:09.295Z,11.17
2018-09-25T10:30:09.307Z,11.18
2018-09-25T10:31:09.267Z,11.36
2018-09-25T10:32:09.249Z,11.47
2018-09-25T10:33:09.278Z,11.59
2018-09-25T10:34:09.249Z,11.63
2018-09-25T10:35:09.223Z,11.62
2018-09-25T10:36:09.240Z,11.60
2018-09-25T10:37:09.203Z,11.62
2018-09-25T10:38:09.188Z,11.68
2018-09-25T10:39:09.258Z,11.73
2018-09-25T10:40:09.167Z,11.77
2018-09-25T10:41:09.303Z,11.87
2018-09-25T10:42:09.198Z,11.91
2018-09-25T10:43:09.133Z,11.84
2018-09-25T10:44:09.123Z,12.00
2018-09-25T10:45:09.140Z,11.97
2018-09-25T10:46:09.101Z,12.00
2018-09-25T10:47:09.096Z,12.02
2018-09-25T10:48:09.135Z,11.90
2018-09-25T10:49:09.069Z,11.91
2018-09-25T10:50:09.119Z,11.80
2018-09-25T10:51:09.105Z,11.87
2018-09-25T10:52:09.044Z,11.81
2018-09-25T10:53:09.028Z,11.86
2018-09-25T10:54:09.052Z,11.90
2018-09-25T10:55:09.023Z,11.81
2018-09-25T10:56:09.079Z,11.72
2018-09-25T10:57:08.987Z,11.83
2018-09-25T10:58:09.002Z,11.81
2018-09-25T10:59:08.966Z,11.90
2018-09-25T11:00:08.989Z,11.91
2018-09-25T11:01:08.980Z,11.88
2018-09-25T11:02:08.931Z,12.03
2018-09-25T11:03:09.062Z,12.07
2018-09-25T11:04:08.911Z,12.07
2018-09-25T11:05:08.903Z,12.20
2018-09-25T11:06:08.947Z,12.49
2018-09-25T11:07:08.876Z,12.86
2018-09-25T11:08:08.868Z,13.53
2018-09-25T11:09:08.856Z,14.45
2018-09-25T11:10:08.904Z,15.43
2018-09-25T11:11:08.845Z,16.15
2018-09-25T11:12:08.903Z,16.42
2018-09-25T11:13:08.820Z,16.79
2018-09-25T11:14:08.809Z,17.33
2018-09-25T11:15:08.796Z,17.76
2018-09-25T11:16:08.789Z,17.08
2018-09-25T11:17:08.776Z,16.36
2018-09-25T11:18:08.838Z,16.17
2018-09-25T11:19:08.750Z,16.91
2018-09-25T11:20:08.743Z,17.48
2018-09-25T11:21:08.744Z,17.95
2018-09-25T11:22:08.717Z,18.25
2018-09-25T11:23:08.710Z,18.63
2018-09-25T11:24:08.810Z,19.00
2018-09-25T11:25:08.693Z,19.15
2018-09-25T11:26:08.682Z,19.18
2018-09-25T11:27:08.666Z,19.33
2018-09-25T11:28:08.659Z,19.66
2018-09-25T11:29:08.653Z,19.64
2018-09-25T11:30:08.668Z,19.69
2018-09-25T11:31:08.650Z,19.95
2018-09-25T11:32:08.611Z,19.95
2018-09-25T11:33:08.601Z,19.66
2018-09-25T11:34:08.590Z,19.41
2018-09-25T11:35:08.610Z,19.11
2018-09-25T11:36:08.607Z,19.31
2018-09-25T11:37:08.599Z,19.66
2018-09-25T11:38:08.560Z,19.56
2018-09-25T11:39:08.536Z,19.73
2018-09-25T11:40:08.534Z,19.84
2018-09-25T11:41:08.573Z,19.81
2018-09-25T11:42:08.547Z,19.70
2018-09-25T11:43:08.536Z,19.74
2018-09-25T11:44:08.480Z,19.40
2018-09-25T11:45:08.479Z,18.52
2018-09-25T11:46:08.462Z,18.88
2018-09-25T11:47:08.524Z,18.93
2018-09-25T11:48:08.468Z,18.93
2018-09-25T11:49:08.457Z,19.27
2018-09-25T11:50:08.421Z,19.62
2018-09-25T11:51:08.409Z,19.73
2018-09-25T11:52:08.397Z,19.94
2018-09-25T11:53:08.397Z,20.16
2018-09-25T11:54:08.405Z,20.41
2018-09-25T11:55:08.438Z,20.70
2018-09-25T11:56:08.360Z,20.81
2018-09-25T11:57:08.347Z,20.85
2018-09-25T11:58:08.334Z,20.66
2018-09-25T11:59:08.322Z,20.97
2018-09-25T12:00:08.344Z,21.20
2018-09-25T12:01:08.328Z,21.50
2018-09-25T12:02:08.325Z,21.70
2018-09-25T12:03:08.278Z,21.55
2018-09-25T12:04:08.273Z,21.29
2018-09-25T12:05:08.256Z,21.33
2018-09-25T12:06:08.279Z,20.82
2018-09-25T12:07:08.293Z,20.70
2018-09-25T12:08:08.222Z,21.14
2018-09-25T12:09:08.219Z,21.30
2018-09-25T12:10:08.201Z,21.54
2018-09-25T12:11:08.193Z,21.35
2018-09-25T12:12:08.217Z,20.82
2018-09-25T12:13:08.195Z,20.72
2018-09-25T12:14:08.164Z,20.80
2018-09-25T12:15:08.150Z,21.22
2018-09-25T12:16:08.140Z,21.62
2018-09-25T12:17:08.125Z,21.80
2018-09-25T12:18:08.155Z,22.08
2018-09-25T12:19:08.142Z,22.15
2018-09-25T12:20:08.106Z,22.44
2018-09-25T12:21:09.088Z,22.63
2018-09-25T12:22:08.079Z,22.70
2018-09-25T12:23:08.070Z,22.45
2018-09-25T12:24:08.093Z,22.28
2018-09-25T12:25:08.101Z,22.18
2018-09-25T12:26:08.036Z,22.45
2018-09-25T12:27:08.026Z,22.90
2018-09-25T12:28:08.019Z,23.24
2018-09-25T12:29:07.998Z,23.54
2018-09-25T12:30:08.016Z,23.93
2018-09-25T12:31:08.024Z,24.18
2018-09-25T12:32:07.969Z,23.74
2018-09-25T12:33:08.056Z,23.27
2018-09-25T12:34:07.950Z,22.84
2018-09-25T12:35:07.948Z,22.65
2018-09-25T12:36:07.956Z,22.94
2018-09-25T12:37:07.951Z,22.72
2018-09-25T12:38:07.905Z,21.89
2018-09-25T12:39:07.889Z,21.17
2018-09-25T12:40:07.879Z,20.81
2018-09-25T12:41:07.976Z,20.84
2018-09-25T12:42:07.889Z,20.87
2018-09-25T12:43:07.848Z,21.02
2018-09-25T12:44:07.866Z,20.67
2018-09-25T12:45:07.823Z,20.18
2018-09-25T12:46:07.815Z,20.04
2018-09-25T12:47:07.800Z,20.06
2018-09-25T12:48:07.831Z,20.28
2018-09-25T12:49:07.797Z,20.60
2018-09-25T12:50:07.820Z,20.99
2018-09-25T12:51:07.768Z,21.46
2018-09-25T12:52:07.756Z,21.42
2018-09-25T12:53:07.736Z,21.25
2018-09-25T12:54:07.773Z,21.62
2018-09-25T12:55:07.719Z,22.26
2018-09-25T12:56:08.590Z,22.81
2018-09-25T12:57:07.701Z,23.27
2018-09-25T12:58:07.681Z,23.43
2018-09-25T12:59:07.675Z,23.48
2018-09-25T13:00:07.697Z,23.20
2018-09-25T13:01:07.656Z,22.70
2018-09-25T13:02:07.685Z,22.32
2018-09-25T13:03:07.636Z,22.22
2018-09-25T13:04:07.629Z,22.28
2018-09-25T13:05:07.610Z,22.39
2018-09-25T13:06:07.637Z,22.17
2018-09-25T13:07:07.588Z,22.02
2018-09-25T13:08:07.607Z,22.15
2018-09-25T13:09:07.568Z,22.25
2018-09-25T13:10:07.559Z,22.22
2018-09-25T13:11:07.551Z,22.22